TRA26B EHAM-LCPH
Flight info
| Callsign | TRA26B |
|---|---|
| Flight time | N/A |
| Altitude | 37000 |
| Route | EDUPO Z739 MISGO DCT EKSAK DCT SWALM DCT GASKA DCT ENITA DCT ETVIS DCT BUDWA DCT BUDEX DCT ARSIN DCT BABIT DCT NEPOS DCT NISVA DCT USALI DCT RODIP DCT BELGI UN131 KULAR UT39 TOMBI DCT DASNI DCT TOBAL |
| Aircraft | B738/M-SDE2E3FGHIJ1RWXYZ/LB1 |
Departure
| Time | 2026-04-29 12:26 |
|---|---|
| Airport | Amsterdam Airport Schiphol (EHAM) |
Arrival
| Time | N/A |
|---|---|
| Airport | Paphos International Airport (LCPH) |
| Time | Latitude | Longitude | Altitude | Speed | Heading |
|---|---|---|---|---|---|
| 2026-04-29 11:14 | 52.30712 | 4.76956 | -2 ft | 0 kts | 33° |
| 2026-04-29 12:07 | 52.30703 | 4.76946 | -2 ft | 3 kts | 33° |
| 2026-04-29 12:07 | 52.30685 | 4.76928 | -2 ft | 4 kts | 33° |
| 2026-04-29 12:07 | 52.30664 | 4.76902 | -2 ft | 4 kts | 51° |
| 2026-04-29 12:08 | 52.30656 | 4.76872 | -2 ft | 4 kts | 119° |
| 2026-04-29 12:08 | 52.30675 | 4.76848 | -2 ft | 4 kts | 156° |
| 2026-04-29 12:08 | 52.30697 | 4.76831 | -2 ft | 2 kts | 148° |
| 2026-04-29 12:08 | 52.30698 | 4.76830 | -2 ft | 1 kts | 148° |
| 2026-04-29 12:13 | 52.30674 | 4.76860 | -2 ft | 8 kts | 135° |
| 2026-04-29 12:13 | 52.30656 | 4.76966 | -2 ft | 11 kts | 91° |
| 2026-04-29 12:13 | 52.30651 | 4.77113 | -2 ft | 15 kts | 94° |
| 2026-04-29 12:13 | 52.30643 | 4.77292 | -2 ft | 16 kts | 94° |
| 2026-04-29 12:14 | 52.30641 | 4.77476 | -2 ft | 16 kts | 87° |
| 2026-04-29 12:14 | 52.30701 | 4.77592 | -2 ft | 15 kts | 4° |
| 2026-04-29 12:14 | 52.30807 | 4.77602 | -2 ft | 16 kts | 3° |
| 2026-04-29 12:14 | 52.30924 | 4.77613 | -2 ft | 18 kts | 3° |
| 2026-04-29 12:15 | 52.31057 | 4.77625 | -2 ft | 20 kts | 3° |
| 2026-04-29 12:15 | 52.31206 | 4.77638 | -2 ft | 22 kts | 3° |
| 2026-04-29 12:15 | 52.31366 | 4.77655 | -2 ft | 24 kts | 4° |
| 2026-04-29 12:15 | 52.31518 | 4.77549 | -2 ft | 26 kts | 316° |
| 2026-04-29 12:16 | 52.31575 | 4.77276 | -2 ft | 28 kts | 267° |
| 2026-04-29 12:16 | 52.31564 | 4.76949 | -2 ft | 30 kts | 266° |
| 2026-04-29 12:16 | 52.31552 | 4.76621 | -2 ft | 27 kts | 266° |
| 2026-04-29 12:16 | 52.31541 | 4.76301 | -2 ft | 29 kts | 266° |
| 2026-04-29 12:17 | 52.31529 | 4.75981 | -2 ft | 24 kts | 266° |
| 2026-04-29 12:17 | 52.31520 | 4.75694 | -2 ft | 26 kts | 267° |
| 2026-04-29 12:17 | 52.31509 | 4.75382 | -2 ft | 28 kts | 267° |
| 2026-04-29 12:17 | 52.31499 | 4.75064 | -2 ft | 25 kts | 266° |
| 2026-04-29 12:18 | 52.31489 | 4.74775 | -2 ft | 26 kts | 267° |
| 2026-04-29 12:18 | 52.31479 | 4.74472 | -2 ft | 25 kts | 266° |
| 2026-04-29 12:18 | 52.31527 | 4.74299 | -2 ft | 19 kts | 353° |
| 2026-04-29 12:18 | 52.31653 | 4.74308 | -2 ft | 18 kts | 4° |
| 2026-04-29 12:19 | 52.31775 | 4.74320 | -2 ft | 17 kts | 3° |
| 2026-04-29 12:19 | 52.31894 | 4.74331 | -2 ft | 17 kts | 4° |
| 2026-04-29 12:19 | 52.32016 | 4.74308 | -2 ft | 19 kts | 312° |
| 2026-04-29 12:19 | 52.32036 | 4.74073 | -2 ft | 24 kts | 273° |
| 2026-04-29 12:20 | 52.32046 | 4.73784 | -2 ft | 27 kts | 273° |
| 2026-04-29 12:20 | 52.32057 | 4.73474 | -2 ft | 26 kts | 275° |
| 2026-04-29 12:20 | 52.32119 | 4.73312 | -2 ft | 26 kts | 319° |
| 2026-04-29 12:20 | 52.32250 | 4.73128 | -2 ft | 24 kts | 319° |
| 2026-04-29 12:21 | 52.32373 | 4.72956 | -2 ft | 23 kts | 319° |
| 2026-04-29 12:21 | 52.32492 | 4.72789 | -2 ft | 22 kts | 319° |
| 2026-04-29 12:21 | 52.32607 | 4.72627 | -2 ft | 22 kts | 319° |
| 2026-04-29 12:21 | 52.32715 | 4.72451 | -2 ft | 23 kts | 311° |
| 2026-04-29 12:22 | 52.32829 | 4.72243 | -2 ft | 26 kts | 311° |
| 2026-04-29 12:22 | 52.32953 | 4.72013 | -2 ft | 28 kts | 311° |
| 2026-04-29 12:22 | 52.33083 | 4.71774 | -2 ft | 25 kts | 311° |
| 2026-04-29 12:22 | 52.33147 | 4.71590 | -2 ft | 12 kts | 269° |
| 2026-04-29 12:23 | 52.33097 | 4.71455 | -2 ft | 16 kts | 227° |
| 2026-04-29 12:23 | 52.33005 | 4.71317 | -2 ft | 20 kts | 221° |
| 2026-04-29 12:23 | 52.32898 | 4.71166 | -2 ft | 19 kts | 222° |
| 2026-04-29 12:23 | 52.32861 | 4.71057 | -2 ft | 0 kts | 272° |
| 2026-04-29 12:24 | 52.32861 | 4.71047 | -2 ft | 3 kts | 272° |
| 2026-04-29 12:25 | 52.32863 | 4.70979 | -3 ft | 10 kts | 272° |
| 2026-04-29 12:25 | 52.32919 | 4.70898 | -3 ft | 14 kts | 4° |
| 2026-04-29 12:25 | 52.33515 | 4.70953 | -3 ft | 101 kts | 3° |
| 2026-04-29 12:26 | 52.34406 | 4.71043 | 42 ft | 150 kts | 10° |
| 2026-04-29 12:26 | 52.35478 | 4.71158 | 669 ft | 160 kts | 9° |
| 2026-04-29 12:26 | 52.36611 | 4.71257 | 1419 ft | 166 kts | 10° |
| 2026-04-29 12:26 | 52.37794 | 4.71368 | 2116 ft | 182 kts | 10° |
| 2026-04-29 12:27 | 52.39174 | 4.71514 | 2369 ft | 215 kts | 9° |
| 2026-04-29 12:27 | 52.40732 | 4.71681 | 2701 ft | 236 kts | 9° |
| 2026-04-29 12:27 | 52.42409 | 4.72087 | 3190 ft | 246 kts | 27° |
| 2026-04-29 12:27 | 52.43913 | 4.73400 | 3993 ft | 247 kts | 36° |
| 2026-04-29 12:28 | 52.45414 | 4.74811 | 4820 ft | 250 kts | 35° |
| 2026-04-29 12:28 | 52.46882 | 4.76330 | 5679 ft | 248 kts | 47° |
| 2026-04-29 12:28 | 52.47861 | 4.78606 | 6460 ft | 245 kts | 69° |
| 2026-04-29 12:28 | 52.48276 | 4.81325 | 7183 ft | 249 kts | 83° |
| 2026-04-29 12:29 | 52.48436 | 4.84188 | 7876 ft | 254 kts | 85° |
| 2026-04-29 12:29 | 52.48564 | 4.87059 | 8640 ft | 258 kts | 86° |
| 2026-04-29 12:29 | 52.48392 | 4.90034 | 9367 ft | 264 kts | 107° |
| 2026-04-29 12:29 | 52.47527 | 4.92672 | 10122 ft | 271 kts | 126° |
| 2026-04-29 12:30 | 52.46071 | 4.94796 | 10707 ft | 285 kts | 140° |
| 2026-04-29 12:30 | 52.44408 | 4.96733 | 10865 ft | 309 kts | 141° |